sensor_id;sensor_type;location;lat;lon;timestamp;P1;durP1;ratioP1;P2;durP2;ratioP2
6878;SDS011;3478;51.462;7.338;2022-10-31T00:04:09;10.03;;;6.50;;
6878;SDS011;3478;51.462;7.338;2022-10-31T00:09:11;12.43;;;6.87;;
6878;SDS011;3478;51.462;7.338;2022-10-31T00:14:15;9.73;;;6.20;;
6878;SDS011;3478;51.462;7.338;2022-10-31T00:19:16;12.53;;;7.23;;
6878;SDS011;3478;51.462;7.338;2022-10-31T00:24:18;6.87;;;6.17;;
6878;SDS011;3478;51.462;7.338;2022-10-31T00:29:21;13.40;;;6.97;;
6878;SDS011;3478;51.462;7.338;2022-10-31T00:34:23;11.53;;;8.20;;
6878;SDS011;3478;51.462;7.338;2022-10-31T00:39:25;14.37;;;7.90;;
6878;SDS011;3478;51.462;7.338;2022-10-31T00:44:28;13.77;;;7.33;;
6878;SDS011;3478;51.462;7.338;2022-10-31T00:49:30;13.70;;;8.40;;
6878;SDS011;3478;51.462;7.338;2022-10-31T00:54:32;13.73;;;8.10;;
6878;SDS011;3478;51.462;7.338;2022-10-31T00:59:35;23.20;;;8.23;;
6878;SDS011;3478;51.462;7.338;2022-10-31T01:04:37;14.00;;;8.43;;
6878;SDS011;3478;51.462;7.338;2022-10-31T01:09:39;13.87;;;7.70;;
6878;SDS011;3478;51.462;7.338;2022-10-31T01:14:43;14.60;;;7.40;;
6878;SDS011;3478;51.462;7.338;2022-10-31T01:19:46;17.20;;;8.17;;
6878;SDS011;3478;51.462;7.338;2022-10-31T01:24:48;10.13;;;7.87;;
6878;SDS011;3478;51.462;7.338;2022-10-31T01:29:51;15.57;;;10.13;;
6878;SDS011;3478;51.462;7.338;2022-10-31T01:34:53;14.40;;;8.90;;
6878;SDS011;3478;51.462;7.338;2022-10-31T01:39:55;18.17;;;10.27;;
6878;SDS011;3478;51.462;7.338;2022-10-31T01:44:59;15.07;;;8.47;;
6878;SDS011;3478;51.462;7.338;2022-10-31T01:50:02;12.50;;;7.30;;
6878;SDS011;3478;51.462;7.338;2022-10-31T01:55:11;16.37;;;7.47;;
6878;SDS011;3478;51.462;7.338;2022-10-31T02:00:18;16.13;;;9.03;;
6878;SDS011;3478;51.462;7.338;2022-10-31T02:05:22;14.70;;;10.30;;
6878;SDS011;3478;51.462;7.338;2022-10-31T02:10:29;14.37;;;8.73;;
6878;SDS011;3478;51.462;7.338;2022-10-31T02:15:33;16.03;;;8.63;;
6878;SDS011;3478;51.462;7.338;2022-10-31T02:20:39;18.70;;;8.17;;
6878;SDS011;3478;51.462;7.338;2022-10-31T02:25:51;14.30;;;7.63;;
6878;SDS011;3478;51.462;7.338;2022-10-31T02:31:13;11.80;;;9.73;;
6878;SDS011;3478;51.462;7.338;2022-10-31T02:36:27;15.77;;;10.37;;
6878;SDS011;3478;51.462;7.338;2022-10-31T02:41:37;14.20;;;9.33;;
6878;SDS011;3478;51.462;7.338;2022-10-31T02:46:49;19.30;;;11.40;;
6878;SDS011;3478;51.462;7.338;2022-10-31T02:51:57;13.93;;;10.83;;
6878;SDS011;3478;51.462;7.338;2022-10-31T02:57:00;25.33;;;12.20;;
6878;SDS011;3478;51.462;7.338;2022-10-31T03:07:29;20.37;;;11.17;;
6878;SDS011;3478;51.462;7.338;2022-10-31T03:12:38;22.63;;;11.30;;
6878;SDS011;3478;51.462;7.338;2022-10-31T03:17:45;22.17;;;9.90;;
6878;SDS011;3478;51.462;7.338;2022-10-31T03:22:54;17.37;;;11.00;;
6878;SDS011;3478;51.462;7.338;2022-10-31T03:27:58;18.80;;;11.40;;
6878;SDS011;3478;51.462;7.338;2022-10-31T03:33:04;15.40;;;9.93;;
6878;SDS011;3478;51.462;7.338;2022-10-31T03:38:10;17.00;;;9.67;;
6878;SDS011;3478;51.462;7.338;2022-10-31T03:43:15;18.27;;;11.30;;
6878;SDS011;3478;51.462;7.338;2022-10-31T03:48:24;18.03;;;9.50;;
6878;SDS011;3478;51.462;7.338;2022-10-31T03:53:30;11.87;;;8.00;;
6878;SDS011;3478;51.462;7.338;2022-10-31T03:58:36;31.63;;;9.60;;
6878;SDS011;3478;51.462;7.338;2022-10-31T04:03:44;14.13;;;9.07;;
6878;SDS011;3478;51.462;7.338;2022-10-31T04:08:48;9.20;;;7.90;;
6878;SDS011;3478;51.462;7.338;2022-10-31T04:13:52;20.73;;;8.30;;
6878;SDS011;3478;51.462;7.338;2022-10-31T04:18:57;15.60;;;8.30;;
6878;SDS011;3478;51.462;7.338;2022-10-31T04:23:59;17.53;;;9.47;;
6878;SDS011;3478;51.462;7.338;2022-10-31T04:29:01;14.70;;;9.20;;
6878;SDS011;3478;51.462;7.338;2022-10-31T04:34:04;14.60;;;10.10;;
6878;SDS011;3478;51.462;7.338;2022-10-31T04:39:07;21.30;;;9.97;;
6878;SDS011;3478;51.462;7.338;2022-10-31T04:44:09;18.00;;;10.33;;
6878;SDS011;3478;51.462;7.338;2022-10-31T04:49:12;13.03;;;10.03;;
6878;SDS011;3478;51.462;7.338;2022-10-31T04:54:14;18.63;;;9.73;;
6878;SDS011;3478;51.462;7.338;2022-10-31T04:59:15;14.93;;;10.70;;
6878;SDS011;3478;51.462;7.338;2022-10-31T05:04:19;15.23;;;8.63;;
6878;SDS011;3478;51.462;7.338;2022-10-31T05:09:20;13.63;;;9.57;;
6878;SDS011;3478;51.462;7.338;2022-10-31T05:14:22;14.17;;;11.00;;
6878;SDS011;3478;51.462;7.338;2022-10-31T05:19:25;11.03;;;9.83;;
6878;SDS011;3478;51.462;7.338;2022-10-31T05:24:27;14.40;;;10.10;;
6878;SDS011;3478;51.462;7.338;2022-10-31T05:29:29;11.17;;;8.30;;
6878;SDS011;3478;51.462;7.338;2022-10-31T05:34:34;13.40;;;9.07;;
6878;SDS011;3478;51.462;7.338;2022-10-31T05:39:36;14.90;;;8.60;;
6878;SDS011;3478;51.462;7.338;2022-10-31T05:44:38;10.40;;;7.93;;
6878;SDS011;3478;51.462;7.338;2022-10-31T05:49:41;11.27;;;9.60;;
6878;SDS011;3478;51.462;7.338;2022-10-31T05:54:43;11.20;;;8.83;;
6878;SDS011;3478;51.462;7.338;2022-10-31T05:59:45;19.70;;;9.20;;
6878;SDS011;3478;51.462;7.338;2022-10-31T06:04:48;14.60;;;7.93;;
6878;SDS011;3478;51.462;7.338;2022-10-31T06:09:50;12.60;;;10.57;;
6878;SDS011;3478;51.462;7.338;2022-10-31T06:14:52;12.23;;;8.63;;
6878;SDS011;3478;51.462;7.338;2022-10-31T06:19:55;11.90;;;8.17;;
6878;SDS011;3478;51.462;7.338;2022-10-31T06:24:57;15.87;;;9.03;;
6878;SDS011;3478;51.462;7.338;2022-10-31T06:29:59;12.03;;;9.40;;
6878;SDS011;3478;51.462;7.338;2022-10-31T06:35:02;14.20;;;10.13;;
6878;SDS011;3478;51.462;7.338;2022-10-31T06:40:05;14.17;;;8.80;;
6878;SDS011;3478;51.462;7.338;2022-10-31T06:45:07;18.53;;;8.87;;
6878;SDS011;3478;51.462;7.338;2022-10-31T06:50:11;23.60;;;12.00;;
6878;SDS011;3478;51.462;7.338;2022-10-31T06:55:12;19.03;;;10.37;;
6878;SDS011;3478;51.462;7.338;2022-10-31T07:00:15;15.77;;;10.57;;
6878;SDS011;3478;51.462;7.338;2022-10-31T07:05:19;21.13;;;10.03;;
6878;SDS011;3478;51.462;7.338;2022-10-31T07:10:20;16.63;;;11.67;;
6878;SDS011;3478;51.462;7.338;2022-10-31T07:15:23;11.80;;;8.03;;
6878;SDS011;3478;51.462;7.338;2022-10-31T07:20:26;21.63;;;11.17;;
6878;SDS011;3478;51.462;7.338;2022-10-31T07:25:28;12.97;;;9.60;;
6878;SDS011;3478;51.462;7.338;2022-10-31T07:30:30;13.73;;;10.23;;
6878;SDS011;3478;51.462;7.338;2022-10-31T07:35:33;14.07;;;10.73;;
6878;SDS011;3478;51.462;7.338;2022-10-31T07:40:35;18.47;;;9.70;;
6878;SDS011;3478;51.462;7.338;2022-10-31T07:45:37;12.73;;;8.50;;
6878;SDS011;3478;51.462;7.338;2022-10-31T07:50:41;15.23;;;9.70;;
6878;SDS011;3478;51.462;7.338;2022-10-31T07:55:43;17.27;;;10.33;;
6878;SDS011;3478;51.462;7.338;2022-10-31T08:00:45;14.90;;;9.67;;
6878;SDS011;3478;51.462;7.338;2022-10-31T08:05:49;15.70;;;10.67;;
6878;SDS011;3478;51.462;7.338;2022-10-31T08:10:51;20.23;;;11.30;;
6878;SDS011;3478;51.462;7.338;2022-10-31T08:15:52;12.40;;;9.93;;
6878;SDS011;3478;51.462;7.338;2022-10-31T08:20:57;15.83;;;12.17;;
6878;SDS011;3478;51.462;7.338;2022-10-31T08:25:58;22.27;;;12.53;;
6878;SDS011;3478;51.462;7.338;2022-10-31T08:31:01;17.80;;;11.17;;
6878;SDS011;3478;51.462;7.338;2022-10-31T08:36:04;14.73;;;11.17;;
6878;SDS011;3478;51.462;7.338;2022-10-31T08:41:06;14.83;;;10.40;;
6878;SDS011;3478;51.462;7.338;2022-10-31T08:46:08;26.57;;;12.40;;
6878;SDS011;3478;51.462;7.338;2022-10-31T08:51:11;17.10;;;11.10;;
6878;SDS011;3478;51.462;7.338;2022-10-31T08:56:13;19.67;;;12.10;;
6878;SDS011;3478;51.462;7.338;2022-10-31T09:01:15;20.27;;;13.10;;
6878;SDS011;3478;51.462;7.338;2022-10-31T09:06:18;20.43;;;13.63;;
6878;SDS011;3478;51.462;7.338;2022-10-31T09:11:20;27.77;;;13.13;;
6878;SDS011;3478;51.462;7.338;2022-10-31T09:16:22;22.47;;;12.73;;
6878;SDS011;3478;51.462;7.338;2022-10-31T09:21:25;22.63;;;14.13;;
6878;SDS011;3478;51.462;7.338;2022-10-31T09:26:27;20.33;;;12.40;;
6878;SDS011;3478;51.462;7.338;2022-10-31T09:31:29;16.23;;;10.87;;
6878;SDS011;3478;51.462;7.338;2022-10-31T09:36:32;19.10;;;11.43;;
6878;SDS011;3478;51.462;7.338;2022-10-31T09:41:41;23.07;;;13.20;;
6878;SDS011;3478;51.462;7.338;2022-10-31T09:46:52;24.77;;;12.97;;
6878;SDS011;3478;51.462;7.338;2022-10-31T09:52:00;22.07;;;14.50;;
6878;SDS011;3478;51.462;7.338;2022-10-31T09:57:05;21.47;;;14.20;;
6878;SDS011;3478;51.462;7.338;2022-10-31T10:02:14;19.23;;;12.87;;
6878;SDS011;3478;51.462;7.338;2022-10-31T10:07:24;24.50;;;13.60;;
6878;SDS011;3478;51.462;7.338;2022-10-31T10:12:37;21.40;;;13.63;;
6878;SDS011;3478;51.462;7.338;2022-10-31T10:17:51;19.63;;;12.67;;
6878;SDS011;3478;51.462;7.338;2022-10-31T10:23:06;23.77;;;13.03;;
6878;SDS011;3478;51.462;7.338;2022-10-31T10:28:22;18.50;;;12.57;;
6878;SDS011;3478;51.462;7.338;2022-10-31T10:33:28;23.93;;;14.47;;
6878;SDS011;3478;51.462;7.338;2022-10-31T10:38:36;23.40;;;12.10;;
6878;SDS011;3478;51.462;7.338;2022-10-31T10:43:40;24.23;;;12.53;;
6878;SDS011;3478;51.462;7.338;2022-10-31T10:48:43;21.07;;;12.70;;
6878;SDS011;3478;51.462;7.338;2022-10-31T10:53:49;26.20;;;12.10;;
6878;SDS011;3478;51.462;7.338;2022-10-31T10:59:02;21.27;;;10.37;;
6878;SDS011;3478;51.462;7.338;2022-10-31T11:04:07;18.77;;;10.90;;
6878;SDS011;3478;51.462;7.338;2022-10-31T11:09:26;16.40;;;9.97;;
6878;SDS011;3478;51.462;7.338;2022-10-31T11:14:28;19.03;;;11.10;;
6878;SDS011;3478;51.462;7.338;2022-10-31T11:19:30;19.50;;;10.50;;
6878;SDS011;3478;51.462;7.338;2022-10-31T11:24:36;21.47;;;11.90;;
6878;SDS011;3478;51.462;7.338;2022-10-31T11:29:39;20.13;;;9.97;;
6878;SDS011;3478;51.462;7.338;2022-10-31T11:34:42;14.87;;;9.50;;
6878;SDS011;3478;51.462;7.338;2022-10-31T11:39:49;12.73;;;10.20;;
6878;SDS011;3478;51.462;7.338;2022-10-31T11:44:54;12.10;;;7.90;;
6878;SDS011;3478;51.462;7.338;2022-10-31T11:49:57;15.80;;;7.50;;
6878;SDS011;3478;51.462;7.338;2022-10-31T11:55:14;11.80;;;7.60;;
6878;SDS011;3478;51.462;7.338;2022-10-31T12:00:20;13.90;;;7.20;;
6878;SDS011;3478;51.462;7.338;2022-10-31T12:05:24;10.00;;;6.87;;
6878;SDS011;3478;51.462;7.338;2022-10-31T12:10:31;6.70;;;6.00;;
6878;SDS011;3478;51.462;7.338;2022-10-31T12:15:41;14.10;;;5.47;;
6878;SDS011;3478;51.462;7.338;2022-10-31T12:20:52;6.70;;;5.53;;
6878;SDS011;3478;51.462;7.338;2022-10-31T12:26:08;9.30;;;5.30;;
6878;SDS011;3478;51.462;7.338;2022-10-31T12:31:21;6.90;;;5.47;;
6878;SDS011;3478;51.462;7.338;2022-10-31T12:36:38;16.80;;;5.67;;
6878;SDS011;3478;51.462;7.338;2022-10-31T12:41:50;15.60;;;5.17;;
6878;SDS011;3478;51.462;7.338;2022-10-31T12:46:58;8.83;;;4.90;;
6878;SDS011;3478;51.462;7.338;2022-10-31T12:52:14;4.83;;;4.23;;
6878;SDS011;3478;51.462;7.338;2022-10-31T12:57:38;5.77;;;5.13;;
6878;SDS011;3478;51.462;7.338;2022-10-31T13:02:44;6.70;;;4.97;;
6878;SDS011;3478;51.462;7.338;2022-10-31T13:07:52;7.03;;;5.47;;
6878;SDS011;3478;51.462;7.338;2022-10-31T13:13:01;10.87;;;4.83;;
6878;SDS011;3478;51.462;7.338;2022-10-31T13:18:09;7.77;;;5.50;;
6878;SDS011;3478;51.462;7.338;2022-10-31T13:23:21;7.33;;;5.30;;
6878;SDS011;3478;51.462;7.338;2022-10-31T13:28:31;8.53;;;4.43;;
6878;SDS011;3478;51.462;7.338;2022-10-31T13:33:38;9.20;;;5.60;;
6878;SDS011;3478;51.462;7.338;2022-10-31T13:38:46;7.33;;;5.67;;
6878;SDS011;3478;51.462;7.338;2022-10-31T13:43:58;7.50;;;5.07;;
6878;SDS011;3478;51.462;7.338;2022-10-31T13:49:01;11.40;;;5.87;;
6878;SDS011;3478;51.462;7.338;2022-10-31T13:54:06;12.00;;;5.57;;
6878;SDS011;3478;51.462;7.338;2022-10-31T13:59:23;14.83;;;5.47;;
6878;SDS011;3478;51.462;7.338;2022-10-31T14:04:28;7.27;;;4.40;;
6878;SDS011;3478;51.462;7.338;2022-10-31T14:09:35;9.50;;;4.70;;
6878;SDS011;3478;51.462;7.338;2022-10-31T14:14:43;13.00;;;5.77;;
6878;SDS011;3478;51.462;7.338;2022-10-31T14:20:02;11.07;;;4.90;;
6878;SDS011;3478;51.462;7.338;2022-10-31T14:25:29;8.57;;;5.53;;
6878;SDS011;3478;51.462;7.338;2022-10-31T14:30:34;6.23;;;4.30;;
6878;SDS011;3478;51.462;7.338;2022-10-31T14:35:45;17.70;;;5.03;;
6878;SDS011;3478;51.462;7.338;2022-10-31T14:41:00;7.00;;;4.63;;
6878;SDS011;3478;51.462;7.338;2022-10-31T14:46:15;12.03;;;5.67;;
6878;SDS011;3478;51.462;7.338;2022-10-31T14:51:25;6.63;;;5.10;;
6878;SDS011;3478;51.462;7.338;2022-10-31T14:56:33;10.53;;;4.10;;
6878;SDS011;3478;51.462;7.338;2022-10-31T15:01:40;8.70;;;4.20;;
6878;SDS011;3478;51.462;7.338;2022-10-31T15:07:02;16.20;;;4.40;;
6878;SDS011;3478;51.462;7.338;2022-10-31T15:17:29;11.60;;;5.37;;
6878;SDS011;3478;51.462;7.338;2022-10-31T15:22:31;14.00;;;5.20;;
6878;SDS011;3478;51.462;7.338;2022-10-31T15:27:33;7.90;;;5.50;;
6878;SDS011;3478;51.462;7.338;2022-10-31T15:32:36;9.83;;;6.17;;
6878;SDS011;3478;51.462;7.338;2022-10-31T15:37:45;23.10;;;5.87;;
6878;SDS011;3478;51.462;7.338;2022-10-31T15:42:49;11.27;;;4.83;;
6878;SDS011;3478;51.462;7.338;2022-10-31T15:47:55;9.83;;;6.10;;
6878;SDS011;3478;51.462;7.338;2022-10-31T15:53:00;10.43;;;6.00;;
6878;SDS011;3478;51.462;7.338;2022-10-31T15:58:03;12.80;;;5.87;;
6878;SDS011;3478;51.462;7.338;2022-10-31T16:03:23;13.17;;;5.77;;
6878;SDS011;3478;51.462;7.338;2022-10-31T16:08:36;5.77;;;4.17;;
6878;SDS011;3478;51.462;7.338;2022-10-31T16:13:52;9.47;;;5.03;;
6878;SDS011;3478;51.462;7.338;2022-10-31T16:18:58;6.50;;;4.70;;
6878;SDS011;3478;51.462;7.338;2022-10-31T16:24:03;21.57;;;6.30;;
6878;SDS011;3478;51.462;7.338;2022-10-31T16:29:22;11.17;;;5.10;;
6878;SDS011;3478;51.462;7.338;2022-10-31T16:34:28;12.73;;;4.97;;
6878;SDS011;3478;51.462;7.338;2022-10-31T16:39:30;6.57;;;4.20;;
6878;SDS011;3478;51.462;7.338;2022-10-31T16:44:32;15.53;;;4.80;;
6878;SDS011;3478;51.462;7.338;2022-10-31T16:49:35;15.07;;;4.97;;
6878;SDS011;3478;51.462;7.338;2022-10-31T16:54:37;18.87;;;7.47;;
6878;SDS011;3478;51.462;7.338;2022-10-31T16:59:39;8.10;;;4.57;;
6878;SDS011;3478;51.462;7.338;2022-10-31T17:04:42;6.30;;;3.53;;
6878;SDS011;3478;51.462;7.338;2022-10-31T17:09:44;7.97;;;2.70;;
6878;SDS011;3478;51.462;7.338;2022-10-31T17:14:47;8.37;;;3.17;;
6878;SDS011;3478;51.462;7.338;2022-10-31T17:19:53;6.10;;;2.57;;
6878;SDS011;3478;51.462;7.338;2022-10-31T17:24:54;5.67;;;4.07;;
6878;SDS011;3478;51.462;7.338;2022-10-31T17:29:56;6.80;;;2.80;;
6878;SDS011;3478;51.462;7.338;2022-10-31T17:34:59;8.63;;;2.10;;
6878;SDS011;3478;51.462;7.338;2022-10-31T17:40:01;5.60;;;2.57;;
6878;SDS011;3478;51.462;7.338;2022-10-31T17:45:04;9.47;;;2.30;;
6878;SDS011;3478;51.462;7.338;2022-10-31T17:50:08;2.80;;;2.13;;
6878;SDS011;3478;51.462;7.338;2022-10-31T17:55:11;3.80;;;1.93;;
6878;SDS011;3478;51.462;7.338;2022-10-31T18:00:14;7.10;;;3.30;;
6878;SDS011;3478;51.462;7.338;2022-10-31T18:05:19;6.30;;;2.53;;
6878;SDS011;3478;51.462;7.338;2022-10-31T18:10:21;4.00;;;2.50;;
6878;SDS011;3478;51.462;7.338;2022-10-31T18:15:23;7.10;;;2.97;;
6878;SDS011;3478;51.462;7.338;2022-10-31T18:20:26;5.53;;;2.10;;
6878;SDS011;3478;51.462;7.338;2022-10-31T18:25:28;4.87;;;2.10;;
6878;SDS011;3478;51.462;7.338;2022-10-31T18:30:30;5.40;;;3.60;;
6878;SDS011;3478;51.462;7.338;2022-10-31T18:35:35;8.20;;;2.27;;
6878;SDS011;3478;51.462;7.338;2022-10-31T18:40:37;7.27;;;2.90;;
6878;SDS011;3478;51.462;7.338;2022-10-31T18:45:39;5.60;;;1.90;;
6878;SDS011;3478;51.462;7.338;2022-10-31T18:50:43;4.80;;;2.43;;
6878;SDS011;3478;51.462;7.338;2022-10-31T18:55:45;6.77;;;2.97;;
6878;SDS011;3478;51.462;7.338;2022-10-31T19:00:47;5.63;;;2.17;;
6878;SDS011;3478;51.462;7.338;2022-10-31T19:05:50;11.20;;;3.60;;
6878;SDS011;3478;51.462;7.338;2022-10-31T19:10:54;5.77;;;2.17;;
6878;SDS011;3478;51.462;7.338;2022-10-31T19:16:01;8.77;;;2.67;;
6878;SDS011;3478;51.462;7.338;2022-10-31T19:21:06;3.07;;;2.20;;
6878;SDS011;3478;51.462;7.338;2022-10-31T19:26:08;5.63;;;2.47;;
6878;SDS011;3478;51.462;7.338;2022-10-31T19:31:10;4.17;;;1.73;;
6878;SDS011;3478;51.462;7.338;2022-10-31T19:36:14;10.27;;;2.60;;
6878;SDS011;3478;51.462;7.338;2022-10-31T19:41:18;8.90;;;2.17;;
6878;SDS011;3478;51.462;7.338;2022-10-31T19:46:21;6.60;;;2.30;;
6878;SDS011;3478;51.462;7.338;2022-10-31T19:51:25;6.03;;;2.87;;
6878;SDS011;3478;51.462;7.338;2022-10-31T19:56:27;5.13;;;3.67;;
6878;SDS011;3478;51.462;7.338;2022-10-31T20:01:29;4.73;;;2.30;;
6878;SDS011;3478;51.462;7.338;2022-10-31T20:06:32;7.60;;;2.67;;
6878;SDS011;3478;51.462;7.338;2022-10-31T20:11:36;4.33;;;2.50;;
6878;SDS011;3478;51.462;7.338;2022-10-31T20:16:38;7.30;;;2.10;;
6878;SDS011;3478;51.462;7.338;2022-10-31T20:21:42;4.43;;;2.30;;
6878;SDS011;3478;51.462;7.338;2022-10-31T20:26:44;8.20;;;2.50;;
6878;SDS011;3478;51.462;7.338;2022-10-31T20:31:45;6.60;;;2.47;;
6878;SDS011;3478;51.462;7.338;2022-10-31T20:36:49;4.70;;;2.37;;
6878;SDS011;3478;51.462;7.338;2022-10-31T20:41:51;4.27;;;2.10;;
6878;SDS011;3478;51.462;7.338;2022-10-31T20:46:52;5.77;;;2.67;;
6878;SDS011;3478;51.462;7.338;2022-10-31T20:51:56;9.30;;;2.60;;
6878;SDS011;3478;51.462;7.338;2022-10-31T20:56:57;3.07;;;2.00;;
6878;SDS011;3478;51.462;7.338;2022-10-31T21:01:59;2.87;;;2.40;;
6878;SDS011;3478;51.462;7.338;2022-10-31T21:07:03;6.27;;;2.13;;
6878;SDS011;3478;51.462;7.338;2022-10-31T21:12:05;5.27;;;2.57;;
6878;SDS011;3478;51.462;7.338;2022-10-31T21:17:08;3.20;;;2.60;;
6878;SDS011;3478;51.462;7.338;2022-10-31T21:22:11;4.13;;;2.50;;
6878;SDS011;3478;51.462;7.338;2022-10-31T21:27:13;4.80;;;2.30;;
6878;SDS011;3478;51.462;7.338;2022-10-31T21:32:15;6.50;;;2.23;;
6878;SDS011;3478;51.462;7.338;2022-10-31T21:37:18;6.07;;;3.17;;
6878;SDS011;3478;51.462;7.338;2022-10-31T21:42:20;6.10;;;2.70;;
6878;SDS011;3478;51.462;7.338;2022-10-31T21:47:22;6.00;;;2.20;;
6878;SDS011;3478;51.462;7.338;2022-10-31T21:52:26;6.67;;;2.50;;
6878;SDS011;3478;51.462;7.338;2022-10-31T21:57:27;4.07;;;2.30;;
6878;SDS011;3478;51.462;7.338;2022-10-31T22:02:29;7.20;;;2.80;;
6878;SDS011;3478;51.462;7.338;2022-10-31T22:07:33;9.90;;;3.10;;
6878;SDS011;3478;51.462;7.338;2022-10-31T22:12:34;5.53;;;3.40;;
6878;SDS011;3478;51.462;7.338;2022-10-31T22:17:38;5.03;;;2.60;;
6878;SDS011;3478;51.462;7.338;2022-10-31T22:22:41;3.13;;;2.83;;
6878;SDS011;3478;51.462;7.338;2022-10-31T22:27:42;4.70;;;3.07;;
6878;SDS011;3478;51.462;7.338;2022-10-31T22:32:44;6.60;;;3.27;;
6878;SDS011;3478;51.462;7.338;2022-10-31T22:37:47;4.70;;;3.03;;
6878;SDS011;3478;51.462;7.338;2022-10-31T22:42:49;11.23;;;3.70;;
6878;SDS011;3478;51.462;7.338;2022-10-31T22:47:51;5.70;;;3.40;;
6878;SDS011;3478;51.462;7.338;2022-10-31T22:52:54;6.43;;;2.40;;
6878;SDS011;3478;51.462;7.338;2022-10-31T22:57:56;5.77;;;2.70;;
6878;SDS011;3478;51.462;7.338;2022-10-31T23:02:58;14.57;;;2.47;;
6878;SDS011;3478;51.462;7.338;2022-10-31T23:08:01;2.83;;;2.60;;
6878;SDS011;3478;51.462;7.338;2022-10-31T23:13:03;3.57;;;3.27;;
6878;SDS011;3478;51.462;7.338;2022-10-31T23:18:22;5.97;;;2.30;;
6878;SDS011;3478;51.462;7.338;2022-10-31T23:23:25;5.37;;;3.43;;
6878;SDS011;3478;51.462;7.338;2022-10-31T23:28:28;4.83;;;3.17;;
6878;SDS011;3478;51.462;7.338;2022-10-31T23:33:29;8.60;;;2.80;;
6878;SDS011;3478;51.462;7.338;2022-10-31T23:38:33;4.50;;;3.10;;
6878;SDS011;3478;51.462;7.338;2022-10-31T23:43:34;5.77;;;2.87;;
6878;SDS011;3478;51.462;7.338;2022-10-31T23:48:36;3.60;;;3.00;;
6878;SDS011;3478;51.462;7.338;2022-10-31T23:53:39;7.00;;;3.47;;
6878;SDS011;3478;51.462;7.338;2022-10-31T23:58:44;7.30;;;3.00;;
